Monday, December 18, 2017, 11:42 AM EST
Back to Local

KHLG, Wheeling Ohio County Airport

Location: Wheeling, WV, United States Lat: 40.167
Local Time: 11:42 AM EST (16:42 GMT) Lon: -80.65
Time Zone: US/Eastern Elev: 1194 ft

Show me the last for .
Show Decoded

2017-12-18 10:53 METAR KHLG 181553Z 22007KT 9SM OVC008 04/02 A3005 RMK AO2 SLP185 T00440022 =
2017-12-18 09:53 METAR KHLG 181453Z 23008KT 8SM OVC007 04/02 A3006 RMK AO2 SLP189 T00390022 56004
                 =
2017-12-18 08:53 METAR KHLG 181353Z 23007KT 8SM OVC007 03/02 A3007 RMK AO2 SLP193 T00330017 =
2017-12-18 08:09 METAR KHLG 181309Z 24008KT 10SM OVC009 03/01 A3007 RMK AO2 T00330011 =
2017-12-18 07:53 METAR KHLG 181253Z 19007KT 10SM OVC010 03/01 A3006 RMK AO2 SLP189 T00330011 =
2017-12-18 06:53 METAR KHLG 181153Z 20005KT 10SM OVC010 03/01 A3007 RMK AO2 SLP194 70002
                 T00330011 10033 20028 50000 =
2017-12-18 05:53 METAR KHLG 181053Z AUTO 20005KT 10SM OVC011 03/01 A3007 RMK AO2 SLP195 T00330011
                 =
2017-12-18 04:53 METAR KHLG 180953Z AUTO 20004KT 10SM BKN013 OVC045 03/01 A3007 RMK AO2 SLP194
                 T00330006 =
2017-12-18 03:53 METAR KHLG 180853Z AUTO 19005KT 10SM OVC047 03/00 A3007 RMK AO2 SLP194 T00330000
                 56004 =
2017-12-18 02:53 METAR KHLG 180753Z AUTO 20008KT 10SM OVC050 03/M01 A3007 RMK AO2 SLP193
                 T00331006 =
2017-12-18 01:53 METAR KHLG 180653Z AUTO 19008KT 10SM OVC060 03/M01 A3007 RMK AO2 SLP192
                 T00331006 =
2017-12-18 00:53 METAR KHLG 180553Z AUTO 21006KT 10SM OVC075 03/M01 A3008 RMK AO2 SLP198
                 T00331011 10033 20017 58001 =
2017-12-17 23:53 METAR KHLG 180453Z AUTO 20007KT 10SM OVC080 03/M01 A3009 RMK AO2 SLP201
                 T00331011 400500011 =
2017-12-17 22:53 METAR KHLG 180353Z AUTO 20006KT 10SM OVC070 03/M01 A3010 RMK AO2 SLP203
                 T00331006 =
2017-12-17 21:53 METAR KHLG 180253Z AUTO 16005KT 10SM BKN065 OVC075 03/M01 A3009 RMK AO2 SLP200
                 T00331006 58006 =
2017-12-17 20:53 METAR KHLG 180153Z AUTO 13003KT 10SM OVC075 03/00 A3010 RMK AO2 SLP205 T00280000
                 =
2017-12-17 19:53 METAR KHLG 180053Z 13005KT 10SM OVC065 02/00 A3011 RMK AO2 SLP208 T00220000 =
2017-12-17 18:53 METAR KHLG 172353Z 12007KT 8SM OVC075 02/01 A3011 RMK AO2 SLP208 60002 T00170006
                 10050 20017 58013 =
2017-12-17 17:53 METAR KHLG 172253Z 10005KT 7SM OVC065 02/01 A3012 RMK AO2 RAE18 SLP213 P0000
                 T00170006 =
2017-12-17 16:53 METAR KHLG 172153Z 00000KT 9SM -RA BKN055 OVC075 03/01 A3014 RMK AO2 RAE31B51
                 SLP218 P0001 T00280006 =
2017-12-17 15:53 METAR KHLG 172053Z 00000KT 7SM -RA OVC046 03/M01 A3015 RMK AO2 RAB01 SLP221
                 P0001 60001 T00331006 53002 =
2017-12-17 14:53 METAR KHLG 171953Z 19004KT 10SM FEW070 OVC090 05/M02 A3009 RMK AO2 SLP201
                 T00501022 =
2017-12-17 13:53 METAR KHLG 171853Z 21006KT 10SM BKN110 05/M02 A3010 RMK AO2 SLP206 T00501022 =
2017-12-17 12:53 METAR KHLG 171753Z 18005KT 10SM SCT120 04/M02 A3014 RMK AO2 SLP218 T00441022
                 10044 20011 58028 =
2017-12-17 11:53 METAR KHLG 171653Z 17005KT 10SM CLR 04/M03 A3016 RMK AO2 SLP226 T00391028 =

Support USWX by starting your Amazon purchase here.